sensor_id;sensor_type;location;lat;lon;timestamp;pressure;altitude;pressure_sealevel;temperature;humidity
8294;BME280;4185;41.506;24.938;2023-09-19T00:00:30;94004.41;;;13.08;75.32
8294;BME280;4185;41.506;24.938;2023-09-19T00:02:59;94008.78;;;12.94;75.45
8294;BME280;4185;41.506;24.938;2023-09-19T00:05:28;94006.00;;;12.89;76.22
8294;BME280;4185;41.506;24.938;2023-09-19T00:07:56;94002.81;;;12.90;75.96
8294;BME280;4185;41.506;24.938;2023-09-19T00:10:24;93997.59;;;12.87;76.46
8294;BME280;4185;41.506;24.938;2023-09-19T00:12:52;93997.06;;;12.83;76.23
8294;BME280;4185;41.506;24.938;2023-09-19T00:15:21;93992.59;;;12.80;76.61
8294;BME280;4185;41.506;24.938;2023-09-19T00:17:48;93992.59;;;12.80;76.12
8294;BME280;4185;41.506;24.938;2023-09-19T00:20:18;93995.81;;;12.78;76.43
8294;BME280;4185;41.506;24.938;2023-09-19T00:22:46;93995.31;;;12.80;76.40
8294;BME280;4185;41.506;24.938;2023-09-19T00:25:13;93990.59;;;12.80;76.53
8294;BME280;4185;41.506;24.938;2023-09-19T00:27:40;93996.31;;;12.82;75.92
8294;BME280;4185;41.506;24.938;2023-09-19T00:30:09;93992.06;;;12.76;76.04
8294;BME280;4185;41.506;24.938;2023-09-19T00:32:40;93982.59;;;12.66;76.55
8294;BME280;4185;41.506;24.938;2023-09-19T00:35:07;93977.81;;;12.55;76.46
8294;BME280;4185;41.506;24.938;2023-09-19T00:37:35;93981.94;;;12.40;76.75
8294;BME280;4185;41.506;24.938;2023-09-19T00:40:04;93983.81;;;12.22;76.80
8294;BME280;4185;41.506;24.938;2023-09-19T00:42:32;93982.72;;;12.09;77.67
8294;BME280;4185;41.506;24.938;2023-09-19T00:44:59;93977.75;;;12.07;78.48
8294;BME280;4185;41.506;24.938;2023-09-19T00:47:29;93982.22;;;12.10;78.75
8294;BME280;4185;41.506;24.938;2023-09-19T00:49:56;93975.28;;;12.09;78.40
8294;BME280;4185;41.506;24.938;2023-09-19T00:52:24;93980.22;;;12.11;78.90
8294;BME280;4185;41.506;24.938;2023-09-19T00:54:51;93981.25;;;12.13;78.84
8294;BME280;4185;41.506;24.938;2023-09-19T00:57:19;93984.75;;;12.19;78.61
8294;BME280;4185;41.506;24.938;2023-09-19T00:59:48;93972.59;;;12.15;78.82
8294;BME280;4185;41.506;24.938;2023-09-19T01:02:16;93983.28;;;12.18;78.60
8294;BME280;4185;41.506;24.938;2023-09-19T01:04:44;93982.50;;;12.18;78.76
8294;BME280;4185;41.506;24.938;2023-09-19T01:07:11;93979.50;;;12.10;78.65
8294;BME280;4185;41.506;24.938;2023-09-19T01:09:40;93980.97;;;12.11;78.92
8294;BME280;4185;41.506;24.938;2023-09-19T01:12:08;93987.94;;;12.12;79.38
8294;BME280;4185;41.506;24.938;2023-09-19T01:14:42;93984.72;;;12.14;80.03
8294;BME280;4185;41.506;24.938;2023-09-19T01:17:18;93959.84;;;11.95;81.19
8294;BME280;4185;41.506;24.938;2023-09-19T01:20:10;93984.69;;;12.08;81.64
8294;BME280;4185;41.506;24.938;2023-09-19T01:22:48;93980.16;;;12.00;80.39
8294;BME280;4185;41.506;24.938;2023-09-19T01:28:43;93976.06;;;11.84;82.09
8294;BME280;4185;41.506;24.938;2023-09-19T01:31:14;93982.47;;;11.81;82.46
8294;BME280;4185;41.506;24.938;2023-09-19T01:33:55;93982.47;;;11.81;83.60
8294;BME280;4185;41.506;24.938;2023-09-19T01:36:30;93986.88;;;11.79;83.78
8294;BME280;4185;41.506;24.938;2023-09-19T01:39:00;93985.06;;;11.70;84.19
8294;BME280;4185;41.506;24.938;2023-09-19T01:41:39;93978.41;;;11.71;84.07
8294;BME280;4185;41.506;24.938;2023-09-19T01:44:12;93985.88;;;11.76;84.66
8294;BME280;4185;41.506;24.938;2023-09-19T01:46:45;93978.50;;;11.82;83.93
8294;BME280;4185;41.506;24.938;2023-09-19T01:49:22;93987.38;;;11.77;84.65
8294;BME280;4185;41.506;24.938;2023-09-19T01:51:57;93980.31;;;11.65;84.92
8294;BME280;4185;41.506;24.938;2023-09-19T01:54:33;93985.22;;;11.61;85.35
8294;BME280;4185;41.506;24.938;2023-09-19T01:57:05;93976.72;;;11.54;86.26
8294;BME280;4185;41.506;24.938;2023-09-19T01:59:37;93980.19;;;11.54;86.56
8294;BME280;4185;41.506;24.938;2023-09-19T02:02:09;93983.63;;;11.49;87.01
8294;BME280;4185;41.506;24.938;2023-09-19T02:04:36;93973.69;;;11.46;86.45
8294;BME280;4185;41.506;24.938;2023-09-19T02:07:03;93972.94;;;11.46;87.16
8294;BME280;4185;41.506;24.938;2023-09-19T02:09:33;93975.19;;;11.47;87.73
8294;BME280;4185;41.506;24.938;2023-09-19T02:12:00;93984.16;;;11.53;88.05
8294;BME280;4185;41.506;24.938;2023-09-19T02:14:30;93978.28;;;11.60;87.99
8294;BME280;4185;41.506;24.938;2023-09-19T02:16:58;93969.16;;;11.63;87.71
8294;BME280;4185;41.506;24.938;2023-09-19T02:19:26;93964.94;;;11.62;87.66
8294;BME280;4185;41.506;24.938;2023-09-19T02:21:53;93965.34;;;11.55;88.11
8294;BME280;4185;41.506;24.938;2023-09-19T02:24:20;93969.81;;;11.53;87.85
8294;BME280;4185;41.506;24.938;2023-09-19T02:26:47;93970.81;;;11.55;88.03
8294;BME280;4185;41.506;24.938;2023-09-19T02:29:13;93977.47;;;11.54;88.31
8294;BME280;4185;41.506;24.938;2023-09-19T02:31:40;93970.78;;;11.50;88.47
8294;BME280;4185;41.506;24.938;2023-09-19T02:34:07;93971.25;;;11.48;88.39
8294;BME280;4185;41.506;24.938;2023-09-19T02:36:36;93964.56;;;11.49;88.31
8294;BME280;4185;41.506;24.938;2023-09-19T02:39:03;93962.81;;;11.46;85.71
8294;BME280;4185;41.506;24.938;2023-09-19T02:41:31;93959.28;;;11.40;85.63
8294;BME280;4185;41.506;24.938;2023-09-19T02:43:58;93960.88;;;11.52;85.08
8294;BME280;4185;41.506;24.938;2023-09-19T02:46:27;93961.69;;;11.58;86.17
8294;BME280;4185;41.506;24.938;2023-09-19T02:48:54;93957.84;;;11.70;85.32
8294;BME280;4185;41.506;24.938;2023-09-19T02:51:21;93957.19;;;11.75;85.94
8294;BME280;4185;41.506;24.938;2023-09-19T02:53:49;93958.09;;;11.67;86.42
8294;BME280;4185;41.506;24.938;2023-09-19T02:56:17;93963.19;;;11.59;86.81
8294;BME280;4185;41.506;24.938;2023-09-19T02:58:44;93966.59;;;11.54;86.16
8294;BME280;4185;41.506;24.938;2023-09-19T03:01:11;93965.06;;;11.48;87.18
8294;BME280;4185;41.506;24.938;2023-09-19T03:03:38;93958.84;;;11.47;87.16
8294;BME280;4185;41.506;24.938;2023-09-19T03:06:06;93964.50;;;11.44;87.75
8294;BME280;4185;41.506;24.938;2023-09-19T03:08:34;93959.00;;;11.38;88.31
8294;BME280;4185;41.506;24.938;2023-09-19T03:11:05;93958.06;;;11.41;88.56
8294;BME280;4185;41.506;24.938;2023-09-19T03:13:33;93952.94;;;11.49;87.92
8294;BME280;4185;41.506;24.938;2023-09-19T03:16:02;93941.84;;;11.52;87.23
8294;BME280;4185;41.506;24.938;2023-09-19T03:18:31;93938.16;;;11.55;86.87
8294;BME280;4185;41.506;24.938;2023-09-19T03:20:58;93941.34;;;11.54;87.27
8294;BME280;4185;41.506;24.938;2023-09-19T03:23:26;93931.13;;;11.43;88.11
8294;BME280;4185;41.506;24.938;2023-09-19T03:25:53;93939.97;;;11.38;88.32
8294;BME280;4185;41.506;24.938;2023-09-19T03:28:22;93936.25;;;11.36;88.05
8294;BME280;4185;41.506;24.938;2023-09-19T03:30:58;93941.91;;;11.32;89.00
8294;BME280;4185;41.506;24.938;2023-09-19T03:33:26;93939.88;;;11.27;88.74
8294;BME280;4185;41.506;24.938;2023-09-19T03:35:53;93951.97;;;11.26;90.19
8294;BME280;4185;41.506;24.938;2023-09-19T03:38:20;93949.94;;;11.21;90.30
8294;BME280;4185;41.506;24.938;2023-09-19T03:40:47;93953.59;;;11.18;91.25
8294;BME280;4185;41.506;24.938;2023-09-19T03:43:14;93964.06;;;11.25;90.39
8294;BME280;4185;41.506;24.938;2023-09-19T03:45:42;93958.22;;;11.32;90.33
8294;BME280;4185;41.506;24.938;2023-09-19T03:48:10;93948.81;;;11.33;89.93
8294;BME280;4185;41.506;24.938;2023-09-19T03:50:37;93954.25;;;11.33;90.15
8294;BME280;4185;41.506;24.938;2023-09-19T03:53:04;93956.47;;;11.29;90.54
8294;BME280;4185;41.506;24.938;2023-09-19T03:55:32;93955.50;;;11.32;90.35
8294;BME280;4185;41.506;24.938;2023-09-19T03:58:00;93959.16;;;11.29;90.87
8294;BME280;4185;41.506;24.938;2023-09-19T04:00:27;93955.75;;;11.34;90.47
8294;BME280;4185;41.506;24.938;2023-09-19T04:02:56;93957.78;;;11.39;90.08
8294;BME280;4185;41.506;24.938;2023-09-19T04:05:23;93964.88;;;11.31;90.64
8294;BME280;4185;41.506;24.938;2023-09-19T04:07:50;93962.16;;;11.31;91.06
8294;BME280;4185;41.506;24.938;2023-09-19T04:10:16;93966.38;;;11.32;90.89
8294;BME280;4185;41.506;24.938;2023-09-19T04:12:50;93970.75;;;11.24;89.47
8294;BME280;4185;41.506;24.938;2023-09-19T04:15:18;93971.44;;;11.19;89.77
8294;BME280;4185;41.506;24.938;2023-09-19T04:17:47;93975.50;;;11.09;89.12
8294;BME280;4185;41.506;24.938;2023-09-19T04:20:16;93974.41;;;11.01;89.42
8294;BME280;4185;41.506;24.938;2023-09-19T04:22:45;93983.88;;;11.05;89.78
8294;BME280;4185;41.506;24.938;2023-09-19T04:25:11;93980.06;;;11.18;89.60
8294;BME280;4185;41.506;24.938;2023-09-19T04:27:38;93981.06;;;11.20;89.24
8294;BME280;4185;41.506;24.938;2023-09-19T04:30:08;93976.88;;;11.19;89.55
8294;BME280;4185;41.506;24.938;2023-09-19T04:32:37;93990.72;;;11.21;89.61
8294;BME280;4185;41.506;24.938;2023-09-19T04:35:06;93989.56;;;11.28;88.89
8294;BME280;4185;41.506;24.938;2023-09-19T04:37:38;93988.81;;;11.27;88.69
8294;BME280;4185;41.506;24.938;2023-09-19T04:40:07;93996.00;;;11.30;89.95
8294;BME280;4185;41.506;24.938;2023-09-19T04:42:39;93995.31;;;11.35;89.96
8294;BME280;4185;41.506;24.938;2023-09-19T04:45:07;93992.13;;;11.37;89.34
8294;BME280;4185;41.506;24.938;2023-09-19T04:47:35;93992.94;;;11.43;88.47
8294;BME280;4185;41.506;24.938;2023-09-19T04:50:07;93996.19;;;11.47;88.49
8294;BME280;4185;41.506;24.938;2023-09-19T04:52:40;93992.03;;;11.51;88.64
8294;BME280;4185;41.506;24.938;2023-09-19T04:55:09;94000.47;;;11.53;88.62
8294;BME280;4185;41.506;24.938;2023-09-19T04:57:42;94001.22;;;11.54;88.56
8294;BME280;4185;41.506;24.938;2023-09-19T05:00:11;94003.66;;;11.52;88.46
8294;BME280;4185;41.506;24.938;2023-09-19T05:02:40;94007.53;;;11.45;89.11
8294;BME280;4185;41.506;24.938;2023-09-19T05:05:07;94005.78;;;11.42;90.14
8294;BME280;4185;41.506;24.938;2023-09-19T05:07:34;94002.38;;;11.47;89.74
8294;BME280;4185;41.506;24.938;2023-09-19T05:10:03;94000.16;;;11.46;89.97
8294;BME280;4185;41.506;24.938;2023-09-19T05:12:32;94008.88;;;11.55;89.81
8294;BME280;4185;41.506;24.938;2023-09-19T05:15:00;94004.75;;;11.60;89.10
8294;BME280;4185;41.506;24.938;2023-09-19T05:17:28;94009.44;;;11.59;87.94
8294;BME280;4185;41.506;24.938;2023-09-19T05:19:55;94008.69;;;11.59;88.77
8294;BME280;4185;41.506;24.938;2023-09-19T05:22:22;94010.19;;;11.60;88.66
8294;BME280;4185;41.506;24.938;2023-09-19T05:24:50;94005.75;;;11.62;89.75
8294;BME280;4185;41.506;24.938;2023-09-19T05:27:19;94013.91;;;11.62;89.60
8294;BME280;4185;41.506;24.938;2023-09-19T05:29:47;94016.19;;;11.64;88.92
8294;BME280;4185;41.506;24.938;2023-09-19T05:32:14;94005.47;;;11.60;88.31
8294;BME280;4185;41.506;24.938;2023-09-19T05:34:41;94001.28;;;11.59;89.54
8294;BME280;4185;41.506;24.938;2023-09-19T05:37:08;94010.91;;;11.60;88.82
8294;BME280;4185;41.506;24.938;2023-09-19T05:39:34;93998.28;;;11.57;89.27
8294;BME280;4185;41.506;24.938;2023-09-19T05:42:03;94001.75;;;11.58;89.54
8294;BME280;4185;41.506;24.938;2023-09-19T05:44:31;94001.97;;;11.54;89.69
8294;BME280;4185;41.506;24.938;2023-09-19T05:46:58;93991.63;;;11.58;89.18
8294;BME280;4185;41.506;24.938;2023-09-19T05:49:25;93994.59;;;11.60;88.54
8294;BME280;4185;41.506;24.938;2023-09-19T05:51:52;94001.53;;;11.61;88.26
8294;BME280;4185;41.506;24.938;2023-09-19T05:54:21;93995.03;;;11.53;88.46
8294;BME280;4185;41.506;24.938;2023-09-19T05:56:48;94002.09;;;11.45;89.31
8294;BME280;4185;41.506;24.938;2023-09-19T05:59:18;94000.63;;;11.44;89.32
8294;BME280;4185;41.506;24.938;2023-09-19T06:01:46;93995.03;;;11.53;89.06
8294;BME280;4185;41.506;24.938;2023-09-19T06:04:13;93997.59;;;11.62;90.08
8294;BME280;4185;41.506;24.938;2023-09-19T06:06:40;93993.78;;;11.74;89.35
8294;BME280;4185;41.506;24.938;2023-09-19T06:09:07;93996.97;;;11.98;88.31
8294;BME280;4185;41.506;24.938;2023-09-19T06:11:34;93989.91;;;12.12;87.72
8294;BME280;4185;41.506;24.938;2023-09-19T06:14:01;93989.47;;;12.19;87.39
8294;BME280;4185;41.506;24.938;2023-09-19T06:16:28;93998.41;;;12.25;86.73
8294;BME280;4185;41.506;24.938;2023-09-19T06:18:56;93993.28;;;12.33;86.55
8294;BME280;4185;41.506;24.938;2023-09-19T06:21:25;94001.25;;;12.42;86.84
8294;BME280;4185;41.506;24.938;2023-09-19T06:23:52;93998.84;;;12.49;86.66
8294;BME280;4185;41.506;24.938;2023-09-19T06:26:19;94008.81;;;12.58;85.62
8294;BME280;4185;41.506;24.938;2023-09-19T06:28:46;94004.34;;;12.60;86.23
8294;BME280;4185;41.506;24.938;2023-09-19T06:31:13;94005.88;;;12.67;86.07
8294;BME280;4185;41.506;24.938;2023-09-19T06:33:40;93998.69;;;12.64;86.49
8294;BME280;4185;41.506;24.938;2023-09-19T06:36:09;93992.28;;;12.72;86.06
8294;BME280;4185;41.506;24.938;2023-09-19T06:38:36;93989.59;;;12.78;86.55
8294;BME280;4185;41.506;24.938;2023-09-19T06:41:04;93997.28;;;12.79;86.78
8294;BME280;4185;41.506;24.938;2023-09-19T06:43:32;93991.63;;;12.83;86.63
8294;BME280;4185;41.506;24.938;2023-09-19T06:45:59;93986.94;;;12.89;86.06
8294;BME280;4185;41.506;24.938;2023-09-19T06:48:26;93981.28;;;12.98;85.89
8294;BME280;4185;41.506;24.938;2023-09-19T06:50:54;93978.16;;;13.10;86.14
8294;BME280;4185;41.506;24.938;2023-09-19T06:53:22;93986.66;;;13.29;86.33
8294;BME280;4185;41.506;24.938;2023-09-19T06:55:50;93983.22;;;13.45;85.71
8294;BME280;4185;41.506;24.938;2023-09-19T06:58:16;93982.53;;;13.61;85.48
8294;BME280;4185;41.506;24.938;2023-09-19T07:00:44;93984.03;;;13.79;84.87
8294;BME280;4185;41.506;24.938;2023-09-19T07:03:13;93979.59;;;13.87;84.44
8294;BME280;4185;41.506;24.938;2023-09-19T07:05:41;93972.41;;;14.00;84.27
8294;BME280;4185;41.506;24.938;2023-09-19T07:08:09;93973.66;;;14.10;83.76
8294;BME280;4185;41.506;24.938;2023-09-19T07:10:40;93969.66;;;14.22;82.95
8294;BME280;4185;41.506;24.938;2023-09-19T07:13:08;93973.19;;;14.34;83.06
8294;BME280;4185;41.506;24.938;2023-09-19T07:15:37;93958.75;;;14.44;82.81
8294;BME280;4185;41.506;24.938;2023-09-19T07:18:11;93958.75;;;14.55;81.36
8294;BME280;4185;41.506;24.938;2023-09-19T07:20:40;93954.75;;;14.62;81.22
8294;BME280;4185;41.506;24.938;2023-09-19T07:23:11;93953.47;;;14.74;80.67
8294;BME280;4185;41.506;24.938;2023-09-19T07:25:40;93948.72;;;14.86;79.61
8294;BME280;4185;41.506;24.938;2023-09-19T07:28:07;93947.69;;;15.00;78.40
8294;BME280;4185;41.506;24.938;2023-09-19T07:30:36;93945.16;;;15.13;78.67
8294;BME280;4185;41.506;24.938;2023-09-19T07:33:04;93945.09;;;15.24;76.90
8294;BME280;4185;41.506;24.938;2023-09-19T07:35:32;93937.09;;;15.37;77.78
8294;BME280;4185;41.506;24.938;2023-09-19T07:37:58;93924.34;;;15.50;76.50
8294;BME280;4185;41.506;24.938;2023-09-19T07:40:27;93915.53;;;15.63;75.43
8294;BME280;4185;41.506;24.938;2023-09-19T07:42:56;93927.13;;;15.80;74.38
8294;BME280;4185;41.506;24.938;2023-09-19T07:45:26;93916.81;;;15.92;74.64
8294;BME280;4185;41.506;24.938;2023-09-19T07:47:55;93914.19;;;16.10;73.06
8294;BME280;4185;41.506;24.938;2023-09-19T07:50:22;93911.84;;;16.25;71.21
8294;BME280;4185;41.506;24.938;2023-09-19T07:52:50;93908.94;;;16.42;70.77
8294;BME280;4185;41.506;24.938;2023-09-19T07:55:18;93901.84;;;16.57;69.87
8294;BME280;4185;41.506;24.938;2023-09-19T07:57:48;93898.75;;;16.66;69.50
8294;BME280;4185;41.506;24.938;2023-09-19T08:00:17;93894.63;;;16.78;68.83
8294;BME280;4185;41.506;24.938;2023-09-19T08:02:44;93895.47;;;16.92;68.14
8294;BME280;4185;41.506;24.938;2023-09-19T08:05:12;93894.31;;;17.06;68.26
8294;BME280;4185;41.506;24.938;2023-09-19T08:07:42;93890.66;;;17.17;68.93
8294;BME280;4185;41.506;24.938;2023-09-19T08:10:09;93890.22;;;17.31;68.31
8294;BME280;4185;41.506;24.938;2023-09-19T08:12:39;93889.56;;;17.44;68.37
8294;BME280;4185;41.506;24.938;2023-09-19T08:15:12;93887.97;;;17.54;68.03
8294;BME280;4185;41.506;24.938;2023-09-19T08:17:41;93882.47;;;17.54;66.18
8294;BME280;4185;41.506;24.938;2023-09-19T08:20:09;93886.47;;;17.53;65.65
8294;BME280;4185;41.506;24.938;2023-09-19T08:22:43;93884.59;;;17.61;64.70
8294;BME280;4185;41.506;24.938;2023-09-19T08:25:13;93886.16;;;17.75;64.27
8294;BME280;4185;41.506;24.938;2023-09-19T08:27:39;93885.66;;;17.89;65.35
8294;BME280;4185;41.506;24.938;2023-09-19T08:30:10;93879.47;;;18.02;64.12
8294;BME280;4185;41.506;24.938;2023-09-19T08:32:37;93871.88;;;18.08;64.35
8294;BME280;4185;41.506;24.938;2023-09-19T08:35:06;93864.72;;;18.18;63.61
8294;BME280;4185;41.506;24.938;2023-09-19T08:37:34;93871.09;;;18.26;63.42
8294;BME280;4185;41.506;24.938;2023-09-19T08:40:01;93871.09;;;18.39;63.95
8294;BME280;4185;41.506;24.938;2023-09-19T08:42:28;93871.88;;;18.53;64.03
8294;BME280;4185;41.506;24.938;2023-09-19T08:44:55;93872.19;;;18.62;63.43
8294;BME280;4185;41.506;24.938;2023-09-19T08:47:30;93868.81;;;18.69;63.19
8294;BME280;4185;41.506;24.938;2023-09-19T08:50:07;93863.44;;;18.77;61.72
8294;BME280;4185;41.506;24.938;2023-09-19T08:52:41;93863.84;;;18.81;61.29
8294;BME280;4185;41.506;24.938;2023-09-19T08:55:12;93858.56;;;18.96;61.22
8294;BME280;4185;41.506;24.938;2023-09-19T08:57:45;93861.81;;;19.07;60.62
8294;BME280;4185;41.506;24.938;2023-09-19T09:00:15;93854.47;;;19.23;60.70
8294;BME280;4185;41.506;24.938;2023-09-19T09:02:44;93856.06;;;19.31;59.90
8294;BME280;4185;41.506;24.938;2023-09-19T09:05:14;93846.28;;;19.43;59.31
8294;BME280;4185;41.506;24.938;2023-09-19T09:07:48;93859.28;;;19.56;58.30
8294;BME280;4185;41.506;24.938;2023-09-19T09:10:16;93849.63;;;19.63;57.22
8294;BME280;4185;41.506;24.938;2023-09-19T09:12:43;93842.72;;;19.69;56.36
8294;BME280;4185;41.506;24.938;2023-09-19T09:15:10;93851.88;;;19.85;55.66
8294;BME280;4185;41.506;24.938;2023-09-19T09:17:41;93839.09;;;19.95;55.87
8294;BME280;4185;41.506;24.938;2023-09-19T09:20:11;93835.47;;;20.00;54.81
8294;BME280;4185;41.506;24.938;2023-09-19T09:22:50;93833.72;;;20.10;48.57
8294;BME280;4185;41.506;24.938;2023-09-19T09:25:17;93820.81;;;20.25;46.58
8294;BME280;4185;41.506;24.938;2023-09-19T09:27:46;93820.22;;;20.47;45.78
8294;BME280;4185;41.506;24.938;2023-09-19T09:30:33;93822.00;;;20.66;44.83
8294;BME280;4185;41.506;24.938;2023-09-19T09:33:08;93816.56;;;20.81;44.35
8294;BME280;4185;41.506;24.938;2023-09-19T09:35:36;93821.03;;;20.91;42.98
8294;BME280;4185;41.506;24.938;2023-09-19T09:38:05;93809.31;;;20.98;42.98
8294;BME280;4185;41.506;24.938;2023-09-19T09:40:46;93803.47;;;21.09;42.29
8294;BME280;4185;41.506;24.938;2023-09-19T09:43:29;93804.59;;;21.14;39.92
8294;BME280;4185;41.506;24.938;2023-09-19T09:46:21;93803.72;;;21.26;38.02
8294;BME280;4185;41.506;24.938;2023-09-19T09:49:05;93802.09;;;21.38;36.60
8294;BME280;4185;41.506;24.938;2023-09-19T09:51:42;93795.50;;;21.56;35.56
8294;BME280;4185;41.506;24.938;2023-09-19T09:54:13;93792.38;;;21.60;35.20
8294;BME280;4185;41.506;24.938;2023-09-19T09:56:57;93792.03;;;21.63;36.48
8294;BME280;4185;41.506;24.938;2023-09-19T09:59:44;93796.28;;;21.72;35.86
8294;BME280;4185;41.506;24.938;2023-09-19T10:02:13;93789.69;;;21.83;37.56
8294;BME280;4185;41.506;24.938;2023-09-19T10:04:45;93782.31;;;21.93;39.86
8294;BME280;4185;41.506;24.938;2023-09-19T10:07:28;93783.44;;;22.05;40.67
8294;BME280;4185;41.506;24.938;2023-09-19T10:10:00;93772.72;;;22.16;41.27
8294;BME280;4185;41.506;24.938;2023-09-19T10:12:43;93776.03;;;22.30;40.10
8294;BME280;4185;41.506;24.938;2023-09-19T10:15:11;93777.88;;;22.35;39.48
8294;BME280;4185;41.506;24.938;2023-09-19T10:17:42;93768.66;;;22.40;39.26
8294;BME280;4185;41.506;24.938;2023-09-19T10:20:12;93765.31;;;22.49;37.49
8294;BME280;4185;41.506;24.938;2023-09-19T10:22:59;93760.91;;;22.61;37.46
8294;BME280;4185;41.506;24.938;2023-09-19T10:25:28;93765.81;;;22.77;37.16
8294;BME280;4185;41.506;24.938;2023-09-19T10:27:57;93758.97;;;22.86;37.69
8294;BME280;4185;41.506;24.938;2023-09-19T10:30:28;93753.19;;;22.99;38.36
8294;BME280;4185;41.506;24.938;2023-09-19T10:33:01;93757.75;;;23.12;39.07
8294;BME280;4185;41.506;24.938;2023-09-19T10:35:28;93746.56;;;23.34;39.22
8294;BME280;4185;41.506;24.938;2023-09-19T10:37:59;93750.06;;;23.42;38.56
8294;BME280;4185;41.506;24.938;2023-09-19T10:40:28;93743.19;;;23.51;38.57
8294;BME280;4185;41.506;24.938;2023-09-19T10:43:04;93742.25;;;23.48;37.49
8294;BME280;4185;41.506;24.938;2023-09-19T10:45:33;93752.66;;;23.72;37.88
8294;BME280;4185;41.506;24.938;2023-09-19T10:48:01;93737.06;;;23.77;37.92
8294;BME280;4185;41.506;24.938;2023-09-19T10:50:31;93738.84;;;23.89;39.86
8294;BME280;4185;41.506;24.938;2023-09-19T10:53:02;93730.69;;;24.16;39.16
8294;BME280;4185;41.506;24.938;2023-09-19T10:55:34;93724.81;;;24.29;38.06
8294;BME280;4185;41.506;24.938;2023-09-19T10:58:02;93732.44;;;24.29;37.46
8294;BME280;4185;41.506;24.938;2023-09-19T11:00:51;93727.44;;;24.44;37.71
8294;BME280;4185;41.506;24.938;2023-09-19T11:03:19;93720.03;;;24.47;36.82
8294;BME280;4185;41.506;24.938;2023-09-19T11:06:05;93715.75;;;24.46;36.66
8294;BME280;4185;41.506;24.938;2023-09-19T11:08:54;93713.25;;;24.57;36.98
8294;BME280;4185;41.506;24.938;2023-09-19T11:11:46;93703.38;;;24.64;36.23
8294;BME280;4185;41.506;24.938;2023-09-19T11:14:29;93702.06;;;24.82;36.19
8294;BME280;4185;41.506;24.938;2023-09-19T11:20:20;93696.97;;;25.05;35.30
8294;BME280;4185;41.506;24.938;2023-09-19T11:23:22;93701.03;;;25.21;36.29
8294;BME280;4185;41.506;24.938;2023-09-19T11:25:50;93688.78;;;25.33;37.12
8294;BME280;4185;41.506;24.938;2023-09-19T11:28:33;93696.53;;;25.52;35.83
8294;BME280;4185;41.506;24.938;2023-09-19T11:34:41;93689.13;;;25.64;36.96
8294;BME280;4185;41.506;24.938;2023-09-19T11:40:32;93683.53;;;25.91;35.43
8294;BME280;4185;41.506;24.938;2023-09-19T11:43:34;93677.59;;;26.13;34.81
8294;BME280;4185;41.506;24.938;2023-09-19T11:46:04;93666.75;;;26.27;34.59
8294;BME280;4185;41.506;24.938;2023-09-19T11:48:31;93670.13;;;26.25;34.80
8294;BME280;4185;41.506;24.938;2023-09-19T11:50:58;93668.41;;;26.39;34.88
8294;BME280;4185;41.506;24.938;2023-09-19T11:53:33;93663.41;;;26.38;34.08
8294;BME280;4185;41.506;24.938;2023-09-19T11:56:01;93660.78;;;26.50;34.03
8294;BME280;4185;41.506;24.938;2023-09-19T11:58:30;93664.44;;;26.62;34.19
8294;BME280;4185;41.506;24.938;2023-09-19T12:01:00;93654.34;;;26.76;34.20
8294;BME280;4185;41.506;24.938;2023-09-19T12:03:35;93654.47;;;26.97;34.02
8294;BME280;4185;41.506;24.938;2023-09-19T12:06:11;93645.09;;;26.83;33.89
8294;BME280;4185;41.506;24.938;2023-09-19T12:08:40;93642.28;;;27.02;35.41
8294;BME280;4185;41.506;24.938;2023-09-19T12:11:12;93648.56;;;27.31;33.83
8294;BME280;4185;41.506;24.938;2023-09-19T12:13:42;93606.34;;;27.06;32.74
8294;BME280;4185;41.506;24.938;2023-09-19T12:16:15;93639.91;;;27.36;31.96
8294;BME280;4185;41.506;24.938;2023-09-19T12:18:44;93629.31;;;27.35;32.47
8294;BME280;4185;41.506;24.938;2023-09-19T12:21:26;93625.91;;;27.46;31.73
8294;BME280;4185;41.506;24.938;2023-09-19T12:24:07;93616.03;;;27.54;32.35
8294;BME280;4185;41.506;24.938;2023-09-19T12:26:42;93617.31;;;27.63;31.13
8294;BME280;4185;41.506;24.938;2023-09-19T12:29:12;93614.00;;;27.76;32.92
8294;BME280;4185;41.506;24.938;2023-09-19T12:31:52;93612.91;;;27.91;32.45
8294;BME280;4185;41.506;24.938;2023-09-19T12:34:22;93619.53;;;27.95;31.34
8294;BME280;4185;41.506;24.938;2023-09-19T12:37:04;93605.25;;;28.01;31.17
8294;BME280;4185;41.506;24.938;2023-09-19T12:39:37;93608.28;;;28.05;31.08
8294;BME280;4185;41.506;24.938;2023-09-19T12:42:04;93610.22;;;28.23;30.83
8294;BME280;4185;41.506;24.938;2023-09-19T12:44:35;93607.28;;;28.21;31.34
8294;BME280;4185;41.506;24.938;2023-09-19T12:47:12;93600.59;;;27.84;31.61
8294;BME280;4185;41.506;24.938;2023-09-19T12:50:09;93603.97;;;27.92;31.14
8294;BME280;4185;41.506;24.938;2023-09-19T12:52:45;93595.41;;;28.21;31.49
8294;BME280;4185;41.506;24.938;2023-09-19T12:55:23;93595.47;;;28.32;31.84
8294;BME280;4185;41.506;24.938;2023-09-19T12:58:02;93593.88;;;28.50;32.25
8294;BME280;4185;41.506;24.938;2023-09-19T13:00:36;93594.22;;;29.10;30.32
8294;BME280;4185;41.506;24.938;2023-09-19T13:03:13;93589.38;;;29.45;28.97
8294;BME280;4185;41.506;24.938;2023-09-19T13:05:50;93550.19;;;29.22;29.07
8294;BME280;4185;41.506;24.938;2023-09-19T13:08:18;93592.19;;;29.34;29.36
8294;BME280;4185;41.506;24.938;2023-09-19T13:11:10;93591.50;;;29.68;28.69
8294;BME280;4185;41.506;24.938;2023-09-19T13:13:39;93588.06;;;29.81;27.95
8294;BME280;4185;41.506;24.938;2023-09-19T13:16:06;93580.72;;;30.11;28.40
8294;BME280;4185;41.506;24.938;2023-09-19T13:18:48;93569.88;;;30.17;28.58
8294;BME280;4185;41.506;24.938;2023-09-19T13:21:28;93569.25;;;30.18;27.86
8294;BME280;4185;41.506;24.938;2023-09-19T13:24:19;93569.56;;;29.76;27.96
8294;BME280;4185;41.506;24.938;2023-09-19T13:26:46;93572.00;;;29.93;28.50
8294;BME280;4185;41.506;24.938;2023-09-19T13:29:12;93576.59;;;30.23;27.52
8294;BME280;4185;41.506;24.938;2023-09-19T13:31:45;93575.81;;;30.34;27.21
8294;BME280;4185;41.506;24.938;2023-09-19T13:34:13;93573.09;;;30.48;27.36
8294;BME280;4185;41.506;24.938;2023-09-19T13:36:41;93580.81;;;30.72;26.63
8294;BME280;4185;41.506;24.938;2023-09-19T13:39:08;93584.19;;;30.82;27.26
8294;BME280;4185;41.506;24.938;2023-09-19T13:41:35;93575.66;;;30.80;27.25